createdAt,value
2022-09-17T04:55:20.858Z,99874.16
2022-09-17T05:00:42.483Z,99870.56
2022-09-17T05:06:03.376Z,99879.22
2022-09-17T05:11:24.240Z,99876.50
2022-09-17T05:16:45.054Z,99881.66
2022-09-17T05:22:06.013Z,99888.44
2022-09-17T05:27:26.789Z,99900.72
2022-09-17T05:32:47.708Z,99898.31
2022-09-17T05:38:08.634Z,99898.53
2022-09-17T05:43:29.252Z,99907.09
2022-09-17T05:48:50.119Z,99906.09
2022-09-17T05:54:10.993Z,99911.31
2022-09-17T05:59:31.921Z,99914.91
2022-09-17T06:04:52.671Z,99916.41
2022-09-17T06:10:13.277Z,99918.50
2022-09-17T06:15:34.151Z,99922.63
2022-09-17T06:20:59.638Z,99928.53
2022-09-17T06:26:20.488Z,99923.50
2022-09-17T06:31:44.307Z,99929.84
2022-09-17T06:37:05.957Z,99934.38
2022-09-17T06:42:28.737Z,99933.19
2022-09-17T06:47:50.115Z,99934.84
2022-09-17T06:53:11.095Z,99935.47
2022-09-17T06:58:32.094Z,99942.47
2022-09-17T07:03:53.343Z,99937.97
2022-09-17T07:09:14.510Z,99936.78
2022-09-17T07:14:35.214Z,99932.91
2022-09-17T07:19:56.164Z,99934.97
2022-09-17T07:25:17.102Z,99939.28
2022-09-17T07:30:38.024Z,99953.38
2022-09-17T07:36:01.200Z,99952.59
2022-09-17T07:41:22.190Z,99951.22
2022-09-17T07:46:43.205Z,99947.00
2022-09-17T07:52:06.402Z,99957.38
2022-09-17T07:57:27.328Z,99951.78
2022-09-17T08:02:54.386Z,99950.53
2022-09-17T08:08:20.366Z,99948.63
2022-09-17T08:13:42.582Z,99946.56
2022-09-17T08:19:03.734Z,99953.78
2022-09-17T08:24:24.790Z,99956.31
2022-09-17T08:29:45.621Z,99947.47
2022-09-17T08:35:07.462Z,99939.16
2022-09-17T08:40:29.043Z,99930.16
2022-09-17T08:45:58.489Z,99942.13
2022-09-17T08:51:28.672Z,99939.53
2022-09-17T08:57:12.128Z,99944.19
2022-09-17T09:03:01.045Z,99955.78
2022-09-17T09:08:37.170Z,99955.84
2022-09-17T09:14:06.313Z,99958.06
2022-09-17T09:19:54.478Z,99959.06
2022-09-17T09:25:23.284Z,99968.78
2022-09-17T09:31:00.626Z,99988.50
2022-09-17T09:36:22.139Z,99968.72
2022-09-17T09:42:11.448Z,99981.06
2022-09-17T09:48:01.734Z,99995.09
2022-09-17T09:53:47.520Z,100001.41
2022-09-17T09:59:11.168Z,100005.19
2022-09-17T10:04:34.884Z,100001.06
2022-09-17T10:10:09.335Z,99991.63
2022-09-17T10:15:30.154Z,99993.31
2022-09-17T10:20:56.234Z,99993.94
2022-09-17T10:26:33.541Z,99997.13
2022-09-17T10:31:57.372Z,99996.69
2022-09-17T10:37:47.855Z,99995.91
2022-09-17T10:43:11.902Z,99987.00
2022-09-17T10:48:37.906Z,100000.00
2022-09-17T10:54:08.961Z,99999.34
2022-09-17T10:59:42.105Z,99999.69
2022-09-17T11:05:30.993Z,100015.59
2022-09-17T11:11:04.192Z,100003.03
2022-09-17T11:16:53.078Z,99994.03
2022-09-17T11:22:27.477Z,99997.06
2022-09-17T11:27:48.434Z,99983.72
2022-09-17T11:33:32.692Z,99987.19
2022-09-17T11:38:57.658Z,99982.34
2022-09-17T11:44:31.355Z,100015.03
2022-09-17T11:49:58.657Z,100007.50
2022-09-17T11:55:26.690Z,99994.72
2022-09-17T12:01:04.909Z,99997.00
2022-09-17T12:06:40.149Z,99981.38
2022-09-17T12:12:03.599Z,99980.69
2022-09-17T12:18:14.326Z,99979.03
2022-09-17T12:23:39.916Z,99981.19
2022-09-17T12:29:30.337Z,99977.53
2022-09-17T12:34:58.536Z,99981.94
2022-09-17T12:40:35.238Z,99973.50
2022-09-17T12:46:28.376Z,99961.09
2022-09-17T12:51:59.799Z,99947.34
2022-09-17T12:57:47.347Z,99953.84
2022-09-17T13:03:55.975Z,99945.16
2022-09-17T13:09:45.110Z,99964.22
2022-09-17T13:15:33.632Z,99978.91
2022-09-17T13:21:08.134Z,99982.41
2022-09-17T13:26:39.576Z,99974.09
2022-09-17T13:32:01.443Z,99959.28
2022-09-17T13:37:22.777Z,99970.28
2022-09-17T13:42:47.724Z,99964.41
2022-09-17T13:48:11.634Z,99958.41
2022-09-17T13:53:34.238Z,99968.31
2022-09-17T13:58:54.870Z,99969.94
2022-09-17T14:04:43.342Z,99954.75
2022-09-17T14:10:16.112Z,99953.69
2022-09-17T14:16:01.736Z,99960.16
2022-09-17T14:21:27.519Z,99956.34
2022-09-17T14:27:25.948Z,99965.47
2022-09-17T14:32:55.753Z,99954.88
2022-09-17T14:38:16.462Z,99952.13
2022-09-17T14:43:55.009Z,99942.13
2022-09-17T14:49:28.171Z,99939.00
2022-09-17T14:54:49.308Z,99939.59
2022-09-17T15:00:18.855Z,99955.31
2022-09-17T15:05:42.319Z,99953.16
2022-09-17T15:11:11.064Z,99958.94
2022-09-17T15:16:33.413Z,99966.53
2022-09-17T15:21:57.342Z,99960.19
2022-09-17T15:27:25.340Z,99952.19
2022-09-17T15:32:54.449Z,99956.16
2022-09-17T15:38:27.635Z,99958.44
2022-09-17T15:43:49.769Z,99955.91
2022-09-17T15:49:34.841Z,99971.78
2022-09-17T15:54:55.921Z,99965.41
2022-09-17T16:00:17.795Z,99976.84
2022-09-17T16:05:46.179Z,99983.38
2022-09-17T16:11:07.616Z,99978.22
2022-09-17T16:16:28.147Z,99982.19
2022-09-17T16:21:49.018Z,99980.94
2022-09-17T16:27:18.118Z,99979.59
2022-09-17T16:32:39.102Z,99986.66
2022-09-17T16:37:59.916Z,99995.06
2022-09-17T16:43:20.304Z,99999.63
2022-09-17T16:48:43.628Z,100005.84
2022-09-17T16:54:04.813Z,100007.25
2022-09-17T16:59:25.678Z,100013.53
2022-09-17T17:04:47.432Z,100017.28
2022-09-17T17:10:09.149Z,100018.19
2022-09-17T17:15:30.376Z,100027.63
2022-09-17T17:20:51.279Z,100030.50
2022-09-17T17:26:11.941Z,100030.41
2022-09-17T17:31:32.970Z,100020.78
2022-09-17T17:36:53.882Z,100020.25
2022-09-17T17:42:14.859Z,100023.03
2022-09-17T17:47:35.964Z,100018.69
2022-09-17T17:52:56.963Z,100019.97
2022-09-17T17:58:17.734Z,100013.03
2022-09-17T18:03:38.845Z,100022.69
2022-09-17T18:09:01.029Z,100021.69
2022-09-17T18:14:21.734Z,100025.19
2022-09-17T18:19:42.396Z,100028.31
2022-09-17T18:25:03.318Z,100031.34
2022-09-17T18:30:24.175Z,100036.13
2022-09-17T18:35:45.894Z,100039.81
2022-09-17T18:41:10.902Z,100044.47
2022-09-17T18:46:31.935Z,100042.84
2022-09-17T18:51:52.907Z,100042.81
2022-09-17T18:57:13.874Z,100046.47
2022-09-17T19:02:34.620Z,100049.91
2022-09-17T19:07:55.438Z,100041.16
2022-09-17T19:13:16.143Z,100038.06
2022-09-17T19:18:37.512Z,100038.06
2022-09-17T19:23:58.408Z,100036.75
2022-09-17T19:29:19.446Z,100035.19
2022-09-17T19:34:40.245Z,100036.19
2022-09-17T19:40:01.369Z,100030.81
2022-09-17T19:45:23.153Z,100034.94
2022-09-17T19:50:51.821Z,100039.84
2022-09-17T19:56:15.573Z,100042.72
2022-09-17T20:01:36.159Z,100034.06
2022-09-17T20:07:01.632Z,100042.53
2022-09-17T20:12:22.738Z,100049.59
2022-09-17T20:17:44.078Z,100037.44
2022-09-17T20:23:05.113Z,100037.75
2022-09-17T20:28:26.146Z,100028.34
2022-09-17T20:33:47.077Z,100026.84
2022-09-17T20:39:13.277Z,100034.16
2022-09-17T20:44:37.511Z,100037.53
2022-09-17T20:49:58.279Z,100033.63
2022-09-17T20:55:19.124Z,100036.53
2022-09-17T21:00:42.463Z,100034.75
2022-09-17T21:06:03.304Z,100031.13
2022-09-17T21:11:24.284Z,100029.16
2022-09-17T21:16:45.930Z,100038.00
2022-09-17T21:22:06.690Z,100035.69
2022-09-17T21:27:30.797Z,100040.06
2022-09-17T21:32:53.400Z,100042.03
2022-09-17T21:38:14.632Z,100034.28
2022-09-17T21:43:36.569Z,100037.06
